Time;durP1;ratioP1;P1;durP2;ratioP2;P2;SDS_P1;SDS_P2;PMS_P1;PMS_P2;Temp;Humidity;BMP_temperature;BMP_pressure;BME280_temperature;BME280_humidity;BME280_pressure;Samples;Min_cycle;Max_cycle;Signal;HPM_P1;HPM_P2
2021/08/02 00:00:17;;;;;;;3.30;2.50;;;;;;;15.54;100.00;97882.16;5075333;28;20203;-63
2021/08/02 00:02:54;;;;;;;3.80;2.57;;;;;;;15.54;100.00;97884.81;5075167;28;20273;-64
2021/08/02 00:05:24;;;;;;;4.43;2.57;;;;;;;15.56;100.00;97890.84;5075479;28;20211;-63
2021/08/02 00:07:57;;;;;;;2.73;2.53;;;;;;;15.56;100.00;97886.34;5075259;28;20215;-63
2021/08/02 00:10:28;;;;;;;2.50;2.30;;;;;;;15.53;100.00;97891.94;5075100;28;20219;-63
2021/08/02 00:13:00;;;;;;;2.93;2.60;;;;;;;15.55;100.00;97899.81;5075051;28;20219;-63
2021/08/02 00:15:28;;;;;;;2.60;2.40;;;;;;;15.55;100.00;97886.50;5075004;28;20671;-63
2021/08/02 00:17:55;;;;;;;2.73;2.53;;;;;;;15.57;100.00;97893.38;5074725;28;20207;-63
2021/08/02 00:20:26;;;;;;;2.73;2.53;;;;;;;15.57;100.00;97895.19;5075139;28;20249;-63
2021/08/02 00:22:53;;;;;;;2.73;2.43;;;;;;;15.56;100.00;97893.50;5074953;28;20248;-63
2021/08/02 00:25:20;;;;;;;2.70;2.37;;;;;;;15.54;100.00;97893.66;5081991;28;20670;-63
2021/08/02 00:27:46;;;;;;;2.80;2.60;;;;;;;15.53;100.00;97896.47;5095037;28;20229;-64
2021/08/02 00:30:14;;;;;;;2.47;2.23;;;;;;;15.52;100.00;97900.09;5094966;28;20203;-63
2021/08/02 00:32:41;;;;;;;4.30;2.73;;;;;;;15.46;100.00;97906.00;5094617;28;20218;-63
2021/08/02 00:35:08;;;;;;;2.50;2.30;;;;;;;15.46;100.00;97909.50;5094944;28;20212;-64
2021/08/02 00:37:45;;;;;;;2.37;2.17;;;;;;;15.47;100.00;97915.66;5094758;28;20310;-63
2021/08/02 00:40:50;;;;;;;3.23;2.77;;;;;;;15.48;100.00;97914.69;5094975;28;20237;-63
2021/08/02 00:43:51;;;;;;;3.47;2.40;;;;;;;15.48;100.00;97915.53;5093342;28;20234;-64
2021/08/02 00:46:23;;;;;;;3.17;2.60;;;;;;;15.49;100.00;97917.22;5094576;28;20218;-63
2021/08/02 00:48:56;;;;;;;2.40;2.20;;;;;;;15.44;100.00;97919.44;5094518;28;20213;-63
2021/08/02 00:51:23;;;;;;;3.27;2.60;;;;;;;15.41;100.00;97910.91;5093006;28;20203;-63
2021/08/02 00:53:52;;;;;;;3.97;2.60;;;;;;;15.36;100.00;97915.81;5094840;28;20214;-63
2021/08/02 00:56:19;;;;;;;4.30;2.40;;;;;;;15.28;100.00;97919.13;5094791;28;20213;-63
2021/08/02 00:58:47;;;;;;;2.60;2.40;;;;;;;15.22;100.00;97913.53;5094453;28;20230;-63
2021/08/02 01:01:15;;;;;;;2.50;2.20;;;;;;;15.16;100.00;97916.75;5094464;28;20256;-63
2021/08/02 01:03:43;;;;;;;2.53;2.33;;;;;;;15.13;100.00;97917.88;5093970;28;20241;-63
2021/08/02 01:06:11;;;;;;;3.50;2.37;;;;;;;15.11;100.00;97913.66;5094359;28;20211;-63
2021/08/02 01:08:39;;;;;;;3.17;2.60;;;;;;;15.08;100.00;97916.59;5094257;28;20554;-63
2021/08/02 01:11:10;;;;;;;3.23;2.50;;;;;;;15.06;100.00;97913.25;5093927;28;20218;-63
2021/08/02 01:13:38;;;;;;;3.00;2.67;;;;;;;15.10;100.00;97904.00;5093894;28;20210;-63
2021/08/02 01:16:07;;;;;;;3.13;2.40;;;;;;;15.13;100.00;97919.69;5094206;28;20210;-63
2021/08/02 01:18:34;;;;;;;2.77;2.57;;;;;;;15.16;100.00;97911.44;5092275;28;20214;-63
2021/08/02 01:21:06;;;;;;;2.60;2.40;;;;;;;15.17;100.00;97910.47;5093642;28;20686;-63
2021/08/02 01:23:35;;;;;;;2.63;2.43;;;;;;;15.17;100.00;97903.31;5093857;28;20226;-63
2021/08/02 01:26:40;;;;;;;3.03;2.27;;;;;;;15.14;100.00;97916.03;5078968;28;20208;-63
2021/08/02 01:29:43;;;;;;;2.93;2.53;;;;;;;15.06;100.00;97903.44;5073462;28;20218;-64
2021/08/02 01:32:10;;;;;;;2.97;2.57;;;;;;;15.02;100.00;97906.53;5073629;28;20219;-64
2021/08/02 01:34:36;;;;;;;2.57;2.37;;;;;;;14.98;100.00;97910.44;5073570;28;20211;-63
2021/08/02 01:37:03;;;;;;;2.50;2.30;;;;;;;14.93;100.00;97908.22;5073397;28;20576;-64
2021/08/02 01:39:32;;;;;;;3.60;2.43;;;;;;;14.94;100.00;97914.34;5073267;28;20242;-63
2021/08/02 01:41:59;;;;;;;2.90;2.60;;;;;;;14.99;100.00;97917.44;5073279;28;20565;-63
2021/08/02 01:44:25;;;;;;;2.40;2.20;;;;;;;15.05;100.00;97911.56;5071771;28;20210;-63
2021/08/02 01:46:59;;;;;;;2.60;2.33;;;;;;;15.08;100.00;97905.94;5073317;28;20230;-63
2021/08/02 01:49:35;;;;;;;4.07;2.83;;;;;;;15.08;100.00;97903.28;5073303;28;20207;-64
2021/08/02 01:52:04;;;;;;;2.93;2.50;;;;;;;15.09;100.00;97907.66;5073401;28;20211;-63
2021/08/02 01:54:41;;;;;;;2.57;2.37;;;;;;;15.06;100.00;97910.59;5072756;28;20207;-63
2021/08/02 01:57:12;;;;;;;2.50;2.30;;;;;;;15.01;100.00;97913.66;5073331;28;20615;-63
2021/08/02 01:59:44;;;;;;;2.57;2.37;;;;;;;15.00;100.00;97905.81;5073258;28;20215;-63
2021/08/02 02:02:15;;;;;;;4.47;2.73;;;;;;;14.97;100.00;97904.25;5073286;28;20231;-63
2021/08/02 02:04:49;;;;;;;4.17;3.00;;;;;;;14.94;100.00;97914.34;5072979;28;20207;-63
2021/08/02 02:07:17;;;;;;;3.33;3.03;;;;;;;14.95;100.00;97910.69;5072809;28;20669;-63
2021/08/02 02:09:49;;;;;;;3.77;2.90;;;;;;;14.93;100.00;97915.34;5071504;28;20215;-63
2021/08/02 02:12:18;;;;;;;3.67;2.97;;;;;;;14.95;100.00;97908.03;5073136;28;20207;-63
2021/08/02 02:14:45;;;;;;;3.33;2.90;;;;;;;14.94;100.00;97903.69;5073128;28;20665;-63
2021/08/02 02:17:12;;;;;;;3.30;2.83;;;;;;;14.94;100.00;97914.34;5073327;28;20219;-63
2021/08/02 02:19:40;;;;;;;3.00;2.70;;;;;;;14.94;100.00;97911.69;5072614;28;20319;-63
2021/08/02 02:22:08;;;;;;;4.50;2.57;;;;;;;14.93;100.00;97910.00;5072835;28;20223;-63
2021/08/02 02:24:36;;;;;;;3.87;2.80;;;;;;;14.94;100.00;97909.88;5075485;28;20230;-63
2021/08/02 02:27:06;;;;;;;3.07;2.77;;;;;;;14.90;100.00;97913.78;5093059;28;20293;-63
2021/08/02 02:29:35;;;;;;;4.57;3.00;;;;;;;14.90;100.00;97918.28;5093167;28;20210;-64
2021/08/02 02:32:05;;;;;;;3.50;2.80;;;;;;;14.86;100.00;97922.19;5093109;28;20211;-63
2021/08/02 02:34:32;;;;;;;4.90;2.83;;;;;;;14.84;100.00;97929.47;5093045;28;20207;-63
2021/08/02 02:36:59;;;;;;;4.37;2.60;;;;;;;14.86;100.00;97931.00;5091478;28;20214;-63
2021/08/02 02:39:27;;;;;;;2.70;2.50;;;;;;;14.89;100.00;97921.91;5092795;28;20226;-63
2021/08/02 02:41:55;;;;;;;3.67;2.53;;;;;;;14.96;100.00;97936.38;5093014;28;20578;-63
2021/08/02 02:44:24;;;;;;;4.40;2.90;;;;;;;14.98;100.00;97931.72;5092662;28;20241;-67
2021/08/02 02:46:51;;;;;;;3.10;2.80;;;;;;;14.97;100.00;97924.72;5092942;28;20210;-63
2021/08/02 02:49:19;;;;;;;4.17;2.73;;;;;;;14.99;100.00;97933.41;5092987;28;20217;-63
2021/08/02 02:51:48;;;;;;;3.60;2.80;;;;;;;14.96;100.00;97939.03;5092553;28;20591;-63
2021/08/02 02:54:16;;;;;;;3.10;2.60;;;;;;;14.98;100.00;97932.56;5092630;28;20222;-63
2021/08/02 02:56:42;;;;;;;3.70;2.90;;;;;;;14.97;100.00;97930.88;5092866;28;20214;-63
2021/08/02 02:59:09;;;;;;;2.90;2.67;;;;;;;14.93;100.00;97933.97;5092603;28;20211;-63
2021/08/02 03:01:45;;;;;;;3.20;2.60;;;;;;;14.84;100.00;97929.47;5091161;28;20214;-63
2021/08/02 03:04:11;;;;;;;3.20;2.80;;;;;;;14.81;100.00;97935.06;5092560;28;20254;-63
2021/08/02 03:06:39;;;;;;;2.80;2.50;;;;;;;14.73;100.00;97937.56;5093797;28;20214;-63
2021/08/02 03:09:07;;;;;;;3.57;2.90;;;;;;;14.67;100.00;97938.94;5096680;28;20210;-63
2021/08/02 03:11:36;;;;;;;3.73;2.60;;;;;;;14.65;100.00;97940.03;5096590;28;20211;-63
2021/08/02 03:14:03;;;;;;;3.17;2.83;;;;;;;14.59;100.00;97943.25;5096511;28;20221;-63
2021/08/02 03:16:29;;;;;;;4.20;2.77;;;;;;;14.47;100.00;97941.66;5096343;28;20218;-63
2021/08/02 03:18:57;;;;;;;2.83;2.60;;;;;;;14.32;100.00;97945.69;5096080;28;20217;-63
2021/08/02 03:21:23;;;;;;;2.97;2.67;;;;;;;14.13;100.00;97942.91;5096354;28;20214;-63
2021/08/02 03:24:01;;;;;;;2.93;2.63;;;;;;;14.01;100.00;97941.28;5096159;28;20240;-63
2021/08/02 03:26:33;;;;;;;3.33;2.67;;;;;;;13.93;100.00;97955.22;5077725;28;20210;-63
2021/08/02 03:29:03;;;;;;;5.67;2.80;;;;;;;13.90;100.00;97946.69;5074614;28;20215;-65
2021/08/02 03:31:35;;;;;;;3.03;2.73;;;;;;;13.91;100.00;97953.66;5075626;28;20588;-63
2021/08/02 03:34:06;;;;;;;3.57;2.40;;;;;;;13.92;100.00;97953.56;5075775;28;20208;-63
2021/08/02 03:36:33;;;;;;;2.70;2.50;;;;;;;13.99;100.00;97951.22;5075748;28;20221;-63
2021/08/02 03:39:00;;;;;;;2.77;2.53;;;;;;;14.04;100.00;97954.31;5075423;28;20234;-63
2021/08/02 03:41:27;;;;;;;3.07;2.77;;;;;;;14.08;100.00;97956.59;5075897;28;20211;-63
2021/08/02 03:43:55;;;;;;;2.70;2.43;;;;;;;14.17;100.00;97960.28;5075368;28;20728;-63
2021/08/02 03:46:23;;;;;;;3.03;2.50;;;;;;;14.26;100.00;97964.81;5075798;28;20219;-64
2021/08/02 03:48:50;;;;;;;2.83;2.60;;;;;;;14.34;100.00;97959.66;5075637;28;20210;-63
2021/08/02 03:51:17;;;;;;;3.07;2.77;;;;;;;14.45;100.00;97971.06;5075709;28;20214;-63
2021/08/02 03:53:46;;;;;;;4.20;2.70;;;;;;;14.53;100.00;97967.72;5073834;28;20207;-63
2021/08/02 03:56:16;;;;;;;3.10;2.70;;;;;;;14.57;100.00;97970.00;5075315;28;20211;-63
2021/08/02 03:58:43;;;;;;;3.17;2.87;;;;;;;14.60;100.00;97968.91;5075406;28;20219;-63
2021/08/02 04:01:10;;;;;;;2.97;2.67;;;;;;;14.63;100.00;97968.59;5075405;28;20213;-63
2021/08/02 04:03:36;;;;;;;3.27;2.60;;;;;;;14.64;100.00;97964.97;5075238;28;20261;-63
2021/08/02 04:06:04;;;;;;;3.30;3.00;;;;;;;14.67;100.00;97976.19;5074906;28;20780;-63
2021/08/02 04:08:32;;;;;;;3.27;2.60;;;;;;;14.72;100.00;97976.63;5075164;28;20218;-63
2021/08/02 04:10:58;;;;;;;3.17;2.50;;;;;;;14.77;100.00;97978.88;5075252;28;20212;-63
2021/08/02 04:13:25;;;;;;;3.83;2.60;;;;;;;14.77;100.00;97981.53;5075014;28;20227;-63
2021/08/02 04:15:51;;;;;;;3.63;2.70;;;;;;;14.78;100.00;97983.25;5074846;28;20678;-63
2021/08/02 04:18:18;;;;;;;2.90;2.60;;;;;;;14.82;100.00;97989.94;5074935;28;20574;-63
2021/08/02 04:20:45;;;;;;;4.07;2.63;;;;;;;14.86;100.00;97991.38;5073395;28;20696;-63
2021/08/02 04:23:12;;;;;;;3.90;2.83;;;;;;;14.92;100.00;98001.47;5074647;28;20245;-63
2021/08/02 04:25:40;;;;;;;3.30;2.97;;;;;;;14.99;100.00;97991.97;5086356;28;20205;-63
2021/08/02 04:28:07;;;;;;;3.83;2.90;;;;;;;15.06;100.00;98004.59;5094926;28;20214;-63
2021/08/02 04:30:33;;;;;;;2.60;2.40;;;;;;;15.10;100.00;98005.16;5094900;28;20229;-63
2021/08/02 04:33:00;;;;;;;3.37;2.67;;;;;;;15.14;100.00;98006.56;5095022;28;20592;-63
2021/08/02 04:35:26;;;;;;;3.40;2.90;;;;;;;15.15;100.00;98008.25;5094812;28;20210;-63
2021/08/02 04:37:53;;;;;;;3.83;3.07;;;;;;;15.17;100.00;98007.16;5094430;28;20226;-63
2021/08/02 04:40:19;;;;;;;4.27;2.90;;;;;;;15.15;100.00;98002.94;5094535;28;20207;-63
2021/08/02 04:42:47;;;;;;;4.40;2.97;;;;;;;15.16;100.00;98009.94;5094792;28;20300;-63
2021/08/02 04:45:14;;;;;;;3.17;2.87;;;;;;;15.18;100.00;98002.66;5094500;28;20218;-63
2021/08/02 04:47:40;;;;;;;3.43;3.07;;;;;;;15.17;100.00;98006.28;5093050;28;20217;-63
2021/08/02 04:50:07;;;;;;;3.87;2.97;;;;;;;15.20;100.00;98011.31;5094715;28;20210;-63
2021/08/02 04:52:34;;;;;;;3.33;3.03;;;;;;;15.23;100.00;98011.06;5095031;28;20210;-63
2021/08/02 04:55:00;;;;;;;3.37;2.80;;;;;;;15.27;100.00;98015.16;5094632;28;20210;-63
2021/08/02 04:57:27;;;;;;;3.23;2.80;;;;;;;15.31;100.00;98009.41;5094491;28;20206;-63
2021/08/02 04:59:54;;;;;;;5.27;3.40;;;;;;;15.36;100.00;98011.69;5094429;28;20222;-63
2021/08/02 05:02:21;;;;;;;3.10;2.80;;;;;;;15.42;100.00;98017.31;5094486;28;20218;-63
2021/08/02 05:04:47;;;;;;;3.97;2.80;;;;;;;15.48;100.00;98015.91;5094059;28;20249;-63
2021/08/02 05:07:14;;;;;;;3.10;2.80;;;;;;;15.51;100.00;98010.31;5094312;28;20229;-63
2021/08/02 05:09:40;;;;;;;4.20;2.60;;;;;;;15.56;100.00;98016.03;5094081;28;20214;-63
2021/08/02 05:12:07;;;;;;;3.77;2.70;;;;;;;15.59;100.00;98018.44;5092563;28;20207;-63
2021/08/02 05:14:34;;;;;;;3.07;2.77;;;;;;;15.62;100.00;98010.16;5094207;28;20221;-63
2021/08/02 05:17:02;;;;;;;3.60;3.10;;;;;;;15.65;100.00;98012.53;5093907;28;20214;-64
2021/08/02 05:19:28;;;;;;;3.80;2.57;;;;;;;15.69;100.00;98019.25;5094141;28;20215;-64
2021/08/02 05:21:54;;;;;;;5.27;2.60;;;;;;;15.71;100.00;98018.13;5094049;28;20207;-63
2021/08/02 05:24:21;;;;;;;5.40;3.03;;;;;;;15.74;100.00;98022.34;5093156;28;20234;-63
2021/08/02 05:26:47;;;;;;;4.10;3.13;;;;;;;15.75;100.00;98024.03;5073889;28;20207;-63
2021/08/02 05:29:14;;;;;;;3.10;2.70;;;;;;;15.76;100.00;98017.75;5072944;28;20218;-63
2021/08/02 05:31:40;;;;;;;3.60;2.70;;;;;;;15.77;100.00;98025.56;5073749;28;20552;-63
2021/08/02 05:34:08;;;;;;;3.50;2.80;;;;;;;15.79;100.00;98020.09;5073612;28;20570;-63
2021/08/02 05:36:35;;;;;;;3.27;2.63;;;;;;;15.79;100.00;98018.31;5073590;28;20214;-63
2021/08/02 05:39:01;;;;;;;2.80;2.43;;;;;;;15.82;100.00;98022.50;5071808;28;20250;-63
2021/08/02 05:41:28;;;;;;;2.90;2.70;;;;;;;15.81;100.00;98018.13;5073375;28;20214;-63
2021/08/02 05:43:54;;;;;;;3.63;2.90;;;;;;;15.84;100.00;98028.53;5073268;28;20239;-63
2021/08/02 05:46:21;;;;;;;4.00;2.93;;;;;;;15.89;100.00;98027.13;5073149;28;20222;-63
2021/08/02 05:48:47;;;;;;;3.03;2.60;;;;;;;15.93;100.00;98022.34;5073356;28;20207;-63
2021/08/02 05:51:15;;;;;;;3.17;2.60;;;;;;;15.95;100.00;98029.22;5073258;28;20215;-61
2021/08/02 05:53:42;;;;;;;2.87;2.67;;;;;;;16.01;100.00;98030.50;5073309;28;20208;-62
2021/08/02 05:56:09;;;;;;;3.03;2.73;;;;;;;16.04;100.00;98034.53;5073264;28;20212;-63
2021/08/02 05:58:36;;;;;;;3.23;2.93;;;;;;;16.12;100.00;98035.66;5073257;28;20216;-62
2021/08/02 06:01:03;;;;;;;2.87;2.57;;;;;;;16.18;100.00;98034.13;5073209;28;20582;-62
2021/08/02 06:03:29;;;;;;;5.00;2.63;;;;;;;16.27;100.00;98043.91;5072945;28;20235;-62
2021/08/02 06:05:56;;;;;;;3.47;2.60;;;;;;;16.33;100.00;98046.00;5071122;28;20671;-62
2021/08/02 06:08:23;;;;;;;2.83;2.50;;;;;;;16.38;100.00;98038.44;5073011;28;20215;-63
2021/08/02 06:10:50;;;;;;;2.77;2.30;;;;;;;16.40;100.00;98038.31;5073014;28;20203;-62
2021/08/02 06:13:16;;;;;;;2.60;2.40;;;;;;;16.43;100.00;98049.53;5072984;28;20211;-63
2021/08/02 06:15:43;;;;;;;3.60;2.33;;;;;;;16.52;100.00;98042.50;5073221;28;20215;-62
2021/08/02 06:18:09;;;;;;;2.70;2.50;;;;;;;16.59;100.00;98049.75;5073249;28;20218;-63
2021/08/02 06:20:36;;;;;;;3.07;2.27;;;;;;;16.69;100.00;98050.56;5072814;28;20207;-62
2021/08/02 06:23:03;;;;;;;1.97;1.83;;;;;;;16.77;100.00;98048.00;5072781;28;20670;-63
2021/08/02 06:25:31;;;;;;;3.47;2.50;;;;;;;16.85;100.00;98049.94;5083296;28;20256;-62
2021/08/02 06:27:58;;;;;;;2.83;2.00;;;;;;;16.93;100.00;98058.06;5092994;28;20210;-63
2021/08/02 06:30:24;;;;;;;3.10;2.00;;;;;;;17.01;100.00;98063.53;5093005;28;20211;-62
2021/08/02 06:32:51;;;;;;;2.47;1.90;;;;;;;17.09;100.00;98064.47;5091372;28;20264;-62
2021/08/02 06:35:17;;;;;;;2.60;2.40;;;;;;;17.12;100.00;98058.00;5092856;28;20694;-63
2021/08/02 06:37:44;;;;;;;2.63;1.93;;;;;;;17.18;100.00;98055.56;5092697;28;20207;-62
2021/08/02 06:40:11;;;;;;;2.97;2.40;;;;;;;17.22;100.00;98048.06;5094103;28;20274;-63
2021/08/02 06:42:39;;;;;;;2.07;1.70;;;;;;;17.29;100.00;98055.34;5097173;28;20210;-63
2021/08/02 06:45:07;;;;;;;2.10;1.90;;;;;;;17.41;100.00;98058.69;5096696;28;20237;-63
2021/08/02 06:47:34;;;;;;;2.67;2.03;;;;;;;17.49;99.44;98058.78;5096984;28;20211;-62
2021/08/02 06:50:00;;;;;;;2.50;2.10;;;;;;;17.59;98.64;98065.75;5096715;28;20670;-62
2021/08/02 06:52:27;;;;;;;2.50;1.80;;;;;;;17.68;97.15;98064.00;5097140;28;20206;-63
2021/08/02 06:54:53;;;;;;;2.40;1.90;;;;;;;17.75;96.42;98062.41;5096942;28;20210;-62
2021/08/02 06:57:20;;;;;;;2.53;1.70;;;;;;;17.83;95.49;98066.00;5095164;28;20214;-63
2021/08/02 06:59:48;;;;;;;2.13;1.93;;;;;;;17.91;94.95;98063.38;5096929;28;20639;-63
2021/08/02 07:02:15;;;;;;;3.00;1.90;;;;;;;18.01;94.81;98058.81;5096775;28;20210;-62
2021/08/02 07:04:41;;;;;;;1.80;1.70;;;;;;;18.14;94.31;98064.59;5096341;28;20234;-63
2021/08/02 07:07:08;;;;;;;3.57;2.10;;;;;;;18.33;93.89;98067.13;5096669;28;20207;-62
2021/08/02 07:09:36;;;;;;;2.23;1.83;;;;;;;18.50;91.83;98060.06;5096320;28;20214;-62
2021/08/02 07:12:03;;;;;;;1.97;1.70;;;;;;;18.67;89.79;98062.72;5096276;28;20217;-62
2021/08/02 07:14:29;;;;;;;3.53;1.70;;;;;;;18.82;88.74;98061.09;5096573;28;20203;-63
2021/08/02 07:16:57;;;;;;;1.97;1.60;;;;;;;18.97;87.28;98064.84;5096738;28;20210;-63
2021/08/02 07:19:23;;;;;;;1.90;1.67;;;;;;;19.11;86.43;98064.28;5096486;28;20217;-63
2021/08/02 07:21:50;;;;;;;1.70;1.60;;;;;;;19.24;84.37;98058.50;5096329;28;20207;-63
2021/08/02 07:24:16;;;;;;;2.23;1.73;;;;;;;19.35;83.50;98058.19;5091399;28;20235;-62
2021/08/02 07:26:43;;;;;;;1.77;1.60;;;;;;;19.49;82.11;98061.09;5074903;28;20218;-63
2021/08/02 07:29:09;;;;;;;3.67;1.80;;;;;;;19.67;80.90;98063.66;5075273;28;20211;-63
2021/08/02 07:31:36;;;;;;;1.60;1.50;;;;;;;19.88;80.17;98067.56;5074286;28;20230;-62
2021/08/02 07:34:03;;;;;;;1.67;1.57;;;;;;;20.08;78.73;98074.34;5083697;28;20210;-63
2021/08/02 07:36:30;;;;;;;2.27;1.50;;;;;;;20.25;78.00;98070.63;5094519;28;20210;-63
2021/08/02 07:38:56;;;;;;;2.37;1.50;;;;;;;20.44;75.85;98075.69;5094439;28;20253;-63
2021/08/02 07:41:23;;;;;;;1.60;1.50;;;;;;;20.62;73.86;98072.81;5094393;28;20226;-63
2021/08/02 07:43:50;;;;;;;3.67;1.70;;;;;;;20.68;70.44;98070.31;5094632;28;20226;-63
2021/08/02 07:46:16;;;;;;;4.23;1.70;;;;;;;20.84;70.44;98072.94;5093817;28;20210;-63
2021/08/02 07:48:43;;;;;;;3.03;1.70;;;;;;;21.15;71.42;98071.19;5094619;28;20211;-63
2021/08/02 07:51:11;;;;;;;3.17;1.40;;;;;;;21.52;68.12;98066.00;5093114;28;20207;-63
2021/08/02 07:53:37;;;;;;;4.03;1.73;;;;;;;21.80;67.42;98069.06;5093852;28;20568;-63
2021/08/02 07:56:04;;;;;;;3.57;1.77;;;;;;;21.99;65.04;98064.09;5095191;28;20214;-62
2021/08/02 07:58:30;;;;;;;2.43;1.27;;;;;;;22.17;65.48;98070.00;5095288;28;20225;-63
2021/08/02 08:00:57;;;;;;;2.00;1.60;;;;;;;22.35;66.01;98073.22;5094972;28;20209;-62
2021/08/02 08:03:24;;;;;;;2.03;1.63;;;;;;;22.49;65.78;98069.78;5095085;28;20575;-62
2021/08/02 08:05:50;;;;;;;1.80;1.40;;;;;;;22.62;64.43;98077.25;5094983;28;20242;-62
2021/08/02 08:08:20;;;;;;;1.53;1.40;;;;;;;22.71;64.45;98073.44;5093467;28;20210;-63
2021/08/02 08:10:47;;;;;;;2.13;1.50;;;;;;;22.65;61.03;98069.63;5092562;28;20235;-62
2021/08/02 08:13:14;;;;;;;2.00;1.40;;;;;;;22.56;62.04;98073.41;5094065;28;20217;-62
2021/08/02 08:15:40;;;;;;;2.67;1.50;;;;;;;22.51;61.30;98075.84;5093927;28;20210;-62
2021/08/02 08:18:07;;;;;;;1.30;1.20;;;;;;;22.50;60.89;98076.81;5088232;28;20219;-62
2021/08/02 08:20:34;;;;;;;1.40;1.30;;;;;;;22.57;61.01;98072.41;5080663;28;20211;-63
2021/08/02 08:23:00;;;;;;;1.87;1.20;;;;;;;22.63;61.08;98066.28;5073747;28;20225;-62
2021/08/02 08:25:28;;;;;;;1.20;1.10;;;;;;;22.75;61.65;98064.81;5082377;28;20226;-62
2021/08/02 08:27:55;;;;;;;2.70;1.50;;;;;;;22.90;62.32;98065.66;5093721;28;20229;-62
2021/08/02 08:30:22;;;;;;;1.30;1.20;;;;;;;23.06;62.60;98061.97;5093267;28;20210;-62
2021/08/02 08:32:48;;;;;;;2.00;1.30;;;;;;;23.18;61.41;98065.91;5093034;28;20218;-62
2021/08/02 08:35:15;;;;;;;1.50;1.30;;;;;;;23.33;61.50;98061.31;5093508;28;20215;-62
2021/08/02 08:37:42;;;;;;;1.70;1.20;;;;;;;23.39;59.54;98064.13;5094295;28;20559;-62
2021/08/02 08:40:10;;;;;;;1.80;1.43;;;;;;;23.38;58.79;98067.00;5094514;28;20237;-62
2021/08/02 08:42:39;;;;;;;2.60;1.57;;;;;;;23.32;57.55;98060.50;5094355;28;20210;-62
2021/08/02 08:45:07;;;;;;;2.23;1.30;;;;;;;23.33;58.58;98056.78;5092334;28;20239;-63
2021/08/02 08:47:34;;;;;;;1.83;1.27;;;;;;;23.28;57.18;98056.50;5094173;28;20207;-63
2021/08/02 08:50:02;;;;;;;2.17;1.40;;;;;;;23.24;58.21;98059.75;5094079;28;20294;-62
2021/08/02 08:52:28;;;;;;;2.33;1.43;;;;;;;23.18;57.89;98069.44;5093925;28;20218;-63
2021/08/02 08:54:55;;;;;;;1.40;1.30;;;;;;;22.99;56.61;98061.84;5094135;28;20210;-62
2021/08/02 08:57:21;;;;;;;1.93;1.00;;;;;;;22.85;57.65;98065.38;5093071;28;20210;-62
2021/08/02 08:59:51;;;;;;;1.90;1.20;;;;;;;22.79;57.63;98058.03;5093528;28;20214;-63
2021/08/02 09:02:24;;;;;;;2.60;1.23;;;;;;;22.73;57.27;98066.84;5093455;28;20219;-62
2021/08/02 09:04:55;;;;;;;4.10;1.40;;;;;;;22.61;59.41;98060.22;5092556;28;20230;-63
2021/08/02 09:07:33;;;;;;;2.00;1.20;;;;;;;22.41;56.54;98067.13;5093494;28;20210;-63
2021/08/02 09:10:00;;;;;;;1.50;1.27;;;;;;;22.17;57.11;98063.78;5093793;28;20268;-63
2021/08/02 09:12:27;;;;;;;2.03;1.20;;;;;;;22.01;58.60;98059.34;5092034;28;20211;-63
2021/08/02 09:14:56;;;;;;;1.93;1.27;;;;;;;21.90;60.27;98057.09;5093857;28;20373;-63
2021/08/02 09:17:31;;;;;;;2.27;1.50;;;;;;;21.77;61.94;98059.50;5093692;28;20210;-63
2021/08/02 09:19:58;;;;;;;1.20;1.13;;;;;;;21.68;63.02;98057.88;5093352;28;20213;-63
2021/08/02 09:22:33;;;;;;;1.40;1.30;;;;;;;21.79;63.26;98054.81;5093644;28;20217;-63
2021/08/02 09:25:09;;;;;;;1.50;1.27;;;;;;;21.92;64.33;98043.44;5087435;28;20230;-63
2021/08/02 09:27:36;;;;;;;1.77;1.63;;;;;;;22.13;61.92;98047.16;5073491;28;20215;-63
2021/08/02 09:30:18;;;;;;;2.27;1.50;;;;;;;22.21;61.49;98044.41;5073203;28;20594;-63
2021/08/02 09:32:49;;;;;;;1.60;1.30;;;;;;;22.36;60.25;98047.16;5073091;28;20207;-63
2021/08/02 09:35:33;;;;;;;2.78;1.50;;;;;;;22.49;60.97;98042.84;5088793;27;20909;-64
2021/08/02 09:38:02;;;;;;;2.23;1.50;;;;;;;22.87;58.46;98035.56;5088474;28;20206;-62
2021/08/02 09:40:35;;;;;;;2.90;1.40;;;;;;;23.11;55.57;98033.41;5090095;28;20263;-63
2021/08/02 09:43:02;;;;;;;1.50;1.40;;;;;;;23.69;56.90;98033.38;5090033;28;20289;-63
2021/08/02 09:45:39;;;;;;;2.77;1.40;;;;;;;24.29;56.48;98036.53;5090037;28;20214;-63
2021/08/02 09:48:06;;;;;;;1.70;1.40;;;;;;;24.88;55.27;98035.16;5089651;28;20675;-64
2021/08/02 09:50:34;;;;;;;1.47;1.37;;;;;;;25.00;48.89;98047.09;5089741;28;20225;-63
2021/08/02 09:53:00;;;;;;;1.20;1.10;;;;;;;24.83;50.51;98043.03;5089775;28;20233;-62
2021/08/02 09:55:27;;;;;;;2.03;1.60;;;;;;;24.51;51.92;98040.03;5089702;28;20203;-63
2021/08/02 09:57:55;;;;;;;1.90;1.40;;;;;;;24.08;50.79;98039.22;5089821;28;20210;-62
2021/08/02 10:00:22;;;;;;;1.43;1.30;;;;;;;23.73;52.65;98029.28;5089441;28;20217;-62
2021/08/02 10:02:51;;;;;;;1.53;1.30;;;;;;;23.67;53.84;98030.03;5089664;28;20214;-62
2021/08/02 10:05:19;;;;;;;1.40;1.30;;;;;;;23.62;50.88;98043.25;5087938;28;20253;-63
2021/08/02 10:07:47;;;;;;;2.10;1.33;;;;;;;22.79;55.92;98044.56;5089807;28;20209;-62
2021/08/02 10:10:16;;;;;;;2.70;1.40;;;;;;;21.90;58.22;98046.31;5089628;28;20218;-62
2021/08/02 10:12:44;;;;;;;1.40;1.10;;;;;;;21.33;59.01;98042.22;5089234;28;20216;-63
2021/08/02 10:15:14;;;;;;;1.10;0.97;;;;;;;21.19;57.82;98037.59;5089267;28;20230;-62
2021/08/02 10:17:45;;;;;;;1.20;1.10;;;;;;;21.10;55.78;98038.63;5089675;28;20218;-62
2021/08/02 10:20:17;;;;;;;1.90;0.90;;;;;;;20.92;55.95;98048.75;5089415;28;20222;-62
2021/08/02 10:22:44;;;;;;;1.13;1.03;;;;;;;20.70;57.18;98043.25;5089398;28;20210;-62
2021/08/02 10:25:12;;;;;;;1.13;1.03;;;;;;;20.13;66.36;98053.22;5089255;28;20199;-62
2021/08/02 10:27:39;;;;;;;5.57;2.40;;;;;;;18.33;86.39;98059.09;5088917;28;20218;-61
2021/08/02 10:30:20;;;;;;;2.60;1.50;;;;;;;17.11;99.87;98048.28;5088812;28;20306;-60
2021/08/02 10:32:55;;;;;;;4.80;2.30;;;;;;;16.60;100.00;98051.47;5087114;28;20251;-60
2021/08/02 10:35:32;;;;;;;3.83;1.70;;;;;;;16.34;100.00;98060.19;5088737;28;20234;-60
2021/08/02 10:38:00;;;;;;;2.27;1.67;;;;;;;16.13;100.00;98041.69;5088900;28;20217;-61
2021/08/02 10:40:28;;;;;;;2.17;1.90;;;;;;;16.13;100.00;98036.34;5089078;28;20206;-60
2021/08/02 10:42:55;;;;;;;3.20;2.00;;;;;;;16.48;100.00;98031.28;5088748;28;20684;-62
2021/08/02 10:45:31;;;;;;;1.70;1.60;;;;;;;16.85;100.00;98021.44;5082921;28;20677;-62
2021/08/02 10:47:59;;;;;;;2.30;2.00;;;;;;;17.29;100.00;98025.97;5075375;28;20217;-61
2021/08/02 10:50:27;;;;;;;3.07;2.10;;;;;;;17.71;100.00;98028.94;5075346;28;20211;-60
2021/08/02 10:52:54;;;;;;;2.17;1.97;;;;;;;18.35;100.00;98030.34;5075330;28;20218;-60
2021/08/02 10:55:21;;;;;;;1.40;1.30;;;;;;;18.86;91.10;98035.69;5075189;28;20239;-61
2021/08/02 10:57:58;;;;;;;1.43;1.30;;;;;;;18.90;90.82;98038.91;5073474;28;20623;-59
2021/08/02 11:00:24;;;;;;;2.20;1.50;;;;;;;18.73;96.10;98032.63;5074699;28;20222;-58
2021/08/02 11:02:52;;;;;;;1.53;1.33;;;;;;;18.62;95.70;98032.03;5075183;28;20208;-58
2021/08/02 11:05:19;;;;;;;1.80;1.67;;;;;;;18.53;96.73;98033.81;5075063;28;20258;-58
2021/08/02 11:07:46;;;;;;;1.70;1.60;;;;;;;18.76;97.95;98034.09;5074836;28;20215;-57
2021/08/02 11:10:15;;;;;;;1.50;1.40;;;;;;;19.03;95.96;98026.72;5074972;28;20577;-56
2021/08/02 11:12:45;;;;;;;1.80;1.70;;;;;;;19.21;94.62;98035.53;5074683;28;20222;-57
2021/08/02 11:15:13;;;;;;;1.53;1.43;;;;;;;19.39;97.84;98030.91;5074288;28;20235;-56
2021/08/02 11:17:49;;;;;;;2.13;1.63;;;;;;;19.71;100.00;98031.00;5074890;28;20212;-56
2021/08/02 11:20:16;;;;;;;1.60;1.50;;;;;;;20.05;98.47;98030.88;5074507;28;20214;-56
2021/08/02 11:22:50;;;;;;;2.77;1.90;;;;;;;20.38;97.22;98038.78;5074775;28;20212;-57
2021/08/02 11:25:25;;;;;;;2.00;1.60;;;;;;;20.70;89.66;98038.72;5072971;28;20204;-58
2021/08/02 11:27:53;;;;;;;2.67;1.60;;;;;;;20.83;87.60;98054.28;5074595;28;20207;-59
2021/08/02 11:30:21;;;;;;;1.87;1.43;;;;;;;20.85;85.05;98042.38;5074414;28;20203;-60
2021/08/02 11:32:48;;;;;;;1.50;1.40;;;;;;;20.86;86.27;98044.03;5074647;28;20207;-60
2021/08/02 11:35:16;;;;;;;3.40;1.60;;;;;;;21.01;88.10;98046.88;5073989;28;20243;-60